createdAt,value
2023-04-11T00:01:31.417Z,11.25
2023-04-11T00:03:59.715Z,12.10
2023-04-11T00:06:31.099Z,9.38
2023-04-11T00:09:02.211Z,9.50
2023-04-11T00:11:38.450Z,10.77
2023-04-11T00:14:16.842Z,10.82
2023-04-11T00:16:44.927Z,10.25
2023-04-11T00:19:56.810Z,9.95
2023-04-11T00:22:29.047Z,11.98
2023-04-11T00:25:03.284Z,11.55
2023-04-11T00:27:34.513Z,8.93
2023-04-11T00:30:08.974Z,11.00
2023-04-11T00:32:49.097Z,10.23
2023-04-11T00:35:18.352Z,9.48
2023-04-11T00:37:55.660Z,9.70
2023-04-11T00:40:32.809Z,8.98
2023-04-11T00:43:00.826Z,10.85
2023-04-11T00:45:32.108Z,10.43
2023-04-11T00:48:08.353Z,17.02
2023-04-11T00:50:41.367Z,11.02
2023-04-11T00:53:14.686Z,10.00
2023-04-11T00:55:44.764Z,11.35
2023-04-11T00:58:13.153Z,10.80
2023-04-11T01:01:12.189Z,9.27
2023-04-11T01:03:47.627Z,13.00
2023-04-11T01:06:19.580Z,10.25
2023-04-11T01:09:02.140Z,11.38
2023-04-11T01:11:34.180Z,11.57
2023-04-11T01:14:14.367Z,11.48
2023-04-11T01:16:58.103Z,9.52
2023-04-11T01:19:28.094Z,10.38
2023-04-11T01:22:13.013Z,10.90
2023-04-11T01:24:41.079Z,10.77
2023-04-11T01:27:27.539Z,13.55
2023-04-11T01:30:07.081Z,17.92
2023-04-11T01:32:37.396Z,15.20
2023-04-11T01:35:20.898Z,15.82
2023-04-11T01:37:49.395Z,15.20
2023-04-11T01:40:20.284Z,13.70
2023-04-11T01:42:54.501Z,15.65
2023-04-11T01:45:38.136Z,14.27
2023-04-11T01:48:16.425Z,10.75
2023-04-11T01:50:45.815Z,13.13
2023-04-11T01:53:16.077Z,10.88
2023-04-11T01:55:48.317Z,12.23
2023-04-11T01:58:17.395Z,11.98
2023-04-11T02:00:47.724Z,15.13
2023-04-11T02:03:18.929Z,10.93
2023-04-11T02:05:48.189Z,12.02
2023-04-11T02:08:20.400Z,14.32
2023-04-11T02:10:55.794Z,11.40
2023-04-11T02:13:36.487Z,11.13
2023-04-11T02:16:19.263Z,10.87
2023-04-11T02:19:04.957Z,10.02
2023-04-11T02:21:44.284Z,11.32
2023-04-11T02:24:29.749Z,14.20
2023-04-11T02:27:33.824Z,12.27
2023-04-11T02:30:02.395Z,11.63
2023-04-11T02:32:33.360Z,9.98
2023-04-11T02:35:04.585Z,11.50
2023-04-11T02:40:50.839Z,12.20
2023-04-11T02:43:25.049Z,12.95
2023-04-11T02:46:12.237Z,13.00
2023-04-11T02:48:57.518Z,11.65
2023-04-11T02:52:09.763Z,12.80
2023-04-11T02:57:27.896Z,13.13
2023-04-11T03:00:08.236Z,14.10
2023-04-11T03:02:41.829Z,12.27
2023-04-11T03:05:14.438Z,15.13
2023-04-11T03:07:45.141Z,12.48
2023-04-11T03:10:13.444Z,11.57
2023-04-11T03:12:42.746Z,13.77
2023-04-11T03:15:16.964Z,12.70
2023-04-11T03:18:03.855Z,13.35
2023-04-11T03:20:34.084Z,13.63
2023-04-11T03:23:30.185Z,14.07
2023-04-11T03:26:12.449Z,12.98
2023-04-11T03:28:40.445Z,11.88
2023-04-11T03:31:21.075Z,12.88
2023-04-11T03:34:02.490Z,12.27
2023-04-11T03:36:31.311Z,15.88
2023-04-11T03:39:14.818Z,12.55
2023-04-11T03:41:51.200Z,12.63
2023-04-11T03:44:19.247Z,15.13
2023-04-11T03:46:47.630Z,10.93
2023-04-11T03:49:36.436Z,10.35
2023-04-11T03:52:04.374Z,10.52
2023-04-11T03:54:48.716Z,10.02
2023-04-11T03:57:17.013Z,14.57
2023-04-11T03:59:49.305Z,13.85
2023-04-11T04:02:22.544Z,14.18
2023-04-11T04:04:56.561Z,13.25
2023-04-11T04:07:43.037Z,14.65
2023-04-11T04:10:11.208Z,14.10
2023-04-11T04:12:56.101Z,17.92
2023-04-11T04:15:47.983Z,15.73
2023-04-11T04:18:19.888Z,13.63
2023-04-11T04:20:48.637Z,13.68
2023-04-11T04:23:25.783Z,15.13
2023-04-11T04:26:14.582Z,16.38
2023-04-11T04:28:51.906Z,18.77
2023-04-11T04:31:58.613Z,17.05
2023-04-11T04:34:35.313Z,15.07
2023-04-11T04:37:03.637Z,15.48
2023-04-11T04:39:52.279Z,14.80
2023-04-11T04:42:22.958Z,12.77
2023-04-11T04:45:10.175Z,11.95
2023-04-11T04:47:53.576Z,11.02
2023-04-11T04:50:24.614Z,12.95
2023-04-11T04:53:13.143Z,11.52
2023-04-11T04:56:00.797Z,8.15
2023-04-11T04:58:30.049Z,15.60
2023-04-11T05:01:15.772Z,12.85
2023-04-11T05:04:00.467Z,13.63
2023-04-11T05:06:42.172Z,13.68
2023-04-11T05:09:10.387Z,20.15
2023-04-11T05:11:43.328Z,19.13
2023-04-11T05:14:34.265Z,21.17
2023-04-11T05:17:13.646Z,22.10
2023-04-11T05:19:42.879Z,24.10
2023-04-11T05:22:41.148Z,20.23
2023-04-11T05:25:18.991Z,14.50
2023-04-11T05:27:51.014Z,15.10
2023-04-11T05:30:35.539Z,13.63
2023-04-11T05:33:06.491Z,16.23
2023-04-11T05:36:02.224Z,11.25
2023-04-11T05:38:39.752Z,10.80
2023-04-11T05:41:13.790Z,12.90
2023-04-11T05:43:44.155Z,19.70
2023-04-11T05:46:31.744Z,13.65
2023-04-11T05:49:00.158Z,17.80
2023-04-11T05:51:32.137Z,16.73
2023-04-11T05:54:01.466Z,14.43
2023-04-11T05:56:33.653Z,12.25
2023-04-11T05:59:01.889Z,9.18
2023-04-11T06:01:34.086Z,14.02
2023-04-11T06:04:02.590Z,10.95
2023-04-11T06:06:46.639Z,10.85
2023-04-11T06:09:19.428Z,10.70
2023-04-11T06:11:49.138Z,10.77
2023-04-11T06:14:17.165Z,12.70
2023-04-11T06:16:53.457Z,12.15
2023-04-11T06:19:23.738Z,13.10
2023-04-11T06:21:57.077Z,11.65
2023-04-11T06:24:42.541Z,15.65
2023-04-11T06:27:13.779Z,12.07
2023-04-11T06:29:48.044Z,11.02
2023-04-11T06:32:18.299Z,15.98
2023-04-11T06:34:46.971Z,14.05
2023-04-11T06:37:16.971Z,16.55
2023-04-11T06:39:46.606Z,14.43
2023-04-11T06:42:15.075Z,12.18
2023-04-11T06:44:46.461Z,13.32
2023-04-11T06:47:15.834Z,12.27
2023-04-11T06:49:44.050Z,11.50
2023-04-11T06:52:13.463Z,10.70
2023-04-11T06:54:43.883Z,12.50
2023-04-11T06:57:16.269Z,9.20
2023-04-11T06:59:46.818Z,10.52
2023-04-11T07:02:16.582Z,11.60
2023-04-11T07:04:44.753Z,12.63
2023-04-11T07:07:16.294Z,12.02
2023-04-11T07:12:15.455Z,11.38
2023-04-11T07:14:44.570Z,12.20
2023-04-11T07:17:14.647Z,13.93
2023-04-11T07:19:53.051Z,11.32
2023-04-11T07:22:27.218Z,10.88
2023-04-11T07:24:59.331Z,15.07
2023-04-11T07:27:28.014Z,14.18
2023-04-11T07:29:56.322Z,13.65
2023-04-11T07:32:24.593Z,12.45
2023-04-11T07:34:53.866Z,11.70
2023-04-11T07:37:25.289Z,12.82
2023-04-11T07:42:27.480Z,15.32
2023-04-11T07:44:56.880Z,13.23
2023-04-11T07:47:26.389Z,11.82
2023-04-11T07:50:06.055Z,12.35
2023-04-11T07:52:34.351Z,13.43
2023-04-11T07:55:02.815Z,13.38
2023-04-11T07:57:42.047Z,12.65
2023-04-11T08:00:14.432Z,13.65
2023-04-11T08:03:00.400Z,17.17
2023-04-11T08:05:33.890Z,10.55
2023-04-11T08:08:04.716Z,10.48
2023-04-11T08:10:58.021Z,12.65
2023-04-11T08:13:39.542Z,12.25
2023-04-11T08:16:11.738Z,20.33
2023-04-11T08:18:43.711Z,14.10
2023-04-11T08:21:12.894Z,15.15
2023-04-11T08:23:51.106Z,14.32
2023-04-11T08:26:26.364Z,17.08
2023-04-11T08:28:55.666Z,11.70
2023-04-11T08:31:24.845Z,12.68
2023-04-11T08:33:54.230Z,14.48
2023-04-11T08:36:22.381Z,24.88
2023-04-11T08:39:02.317Z,60.47
2023-04-11T08:41:34.116Z,38.70
2023-04-11T08:44:03.252Z,24.00
2023-04-11T08:46:34.290Z,18.42
2023-04-11T08:49:06.847Z,16.73
2023-04-11T08:51:36.499Z,19.23
2023-04-11T08:54:07.545Z,27.23
2023-04-11T08:56:36.333Z,16.52
2023-04-11T08:59:06.446Z,15.85
2023-04-11T09:01:38.637Z,19.90
2023-04-11T09:04:07.168Z,17.80
2023-04-11T09:06:41.475Z,19.75
2023-04-11T09:09:29.447Z,19.95
2023-04-11T09:12:00.980Z,15.77
2023-04-11T09:17:04.307Z,17.90
2023-04-11T09:19:33.516Z,20.45
2023-04-11T09:22:08.452Z,15.48
2023-04-11T09:24:45.535Z,16.67
2023-04-11T09:27:17.986Z,16.15
2023-04-11T09:29:51.852Z,16.90
2023-04-11T09:32:37.570Z,19.63
2023-04-11T09:35:21.645Z,16.88
2023-04-11T09:37:54.822Z,16.40
2023-04-11T09:40:30.262Z,16.88
2023-04-11T09:43:05.800Z,17.30
2023-04-11T09:45:47.752Z,14.38
2023-04-11T09:48:39.519Z,12.98
2023-04-11T09:51:31.844Z,15.38
2023-04-11T09:54:14.451Z,14.50
2023-04-11T09:56:47.621Z,13.52
2023-04-11T09:59:28.793Z,19.52
2023-04-11T10:02:24.433Z,15.57
2023-04-11T10:04:56.013Z,15.45
2023-04-11T10:10:10.005Z,14.23
2023-04-11T10:12:40.608Z,13.32
2023-04-11T10:15:56.922Z,15.07
2023-04-11T10:18:38.981Z,17.13
2023-04-11T10:24:34.290Z,7.35
2023-04-11T10:27:34.932Z,7.22
2023-04-11T10:30:42.151Z,6.32
2023-04-11T10:33:17.199Z,6.32
2023-04-11T10:49:23.318Z,2.42
2023-04-11T10:54:47.587Z,2.50
2023-04-11T11:00:14.119Z,2.72
2023-04-11T11:06:31.602Z,1.50
2023-04-11T11:09:04.230Z,1.15
2023-04-11T11:11:38.766Z,1.95
2023-04-11T11:14:14.141Z,2.33
2023-04-11T11:16:50.985Z,1.50
2023-04-11T11:19:20.765Z,1.73
2023-04-11T11:21:52.215Z,3.25
2023-04-11T11:24:33.050Z,1.40
2023-04-11T11:27:19.571Z,1.77
2023-04-11T11:29:49.101Z,1.48
2023-04-11T11:32:29.820Z,3.85
2023-04-11T11:35:01.911Z,2.58
2023-04-11T11:37:39.868Z,1.30
2023-04-11T11:40:19.695Z,3.05
2023-04-11T11:43:05.838Z,2.30
2023-04-11T11:45:58.136Z,1.88
2023-04-11T11:48:54.463Z,3.53
2023-04-11T11:51:44.908Z,2.30
2023-04-11T11:54:15.020Z,5.25
2023-04-11T11:57:17.972Z,5.28
2023-04-11T11:59:51.654Z,6.15
2023-04-11T12:02:19.911Z,6.47
2023-04-11T12:04:48.930Z,6.70
2023-04-11T12:07:40.309Z,4.60
2023-04-11T12:10:18.805Z,8.95
2023-04-11T12:12:53.376Z,6.88
2023-04-11T12:15:23.347Z,6.35
2023-04-11T12:17:55.364Z,5.57
2023-04-11T12:20:28.863Z,8.68
2023-04-11T12:23:00.640Z,7.47
2023-04-11T12:25:35.287Z,6.30
2023-04-11T12:28:14.678Z,6.10
2023-04-11T12:30:42.535Z,5.28
2023-04-11T12:33:17.900Z,5.88
2023-04-11T12:36:02.737Z,5.70
2023-04-11T12:38:36.106Z,6.30
2023-04-11T12:41:30.954Z,4.53
2023-04-11T12:44:08.556Z,5.63
2023-04-11T12:46:39.645Z,6.40
2023-04-11T12:49:13.899Z,7.53
2023-04-11T12:51:46.535Z,6.53
2023-04-11T12:54:17.662Z,6.47
2023-04-11T12:56:56.851Z,7.95
2023-04-11T12:59:38.679Z,5.88
2023-04-11T13:02:12.393Z,5.57
2023-04-11T13:04:40.858Z,5.95
2023-04-11T13:07:11.502Z,4.93
2023-04-11T13:09:40.909Z,9.00
2023-04-11T13:12:21.167Z,2.85
2023-04-11T13:14:50.147Z,3.40
2023-04-11T13:17:32.011Z,3.33
2023-04-11T13:20:12.101Z,3.42
2023-04-11T13:22:44.940Z,2.72
2023-04-11T13:25:13.728Z,2.72
2023-04-11T13:27:45.847Z,5.90
2023-04-11T13:30:27.570Z,3.30
2023-04-11T13:33:02.052Z,2.65
2023-04-11T13:35:31.267Z,3.13
2023-04-11T13:37:59.383Z,1.70
2023-04-11T13:40:28.695Z,1.90
2023-04-11T13:43:05.424Z,3.33
2023-04-11T13:45:36.437Z,4.00
2023-04-11T13:48:10.710Z,4.85
2023-04-11T13:50:40.202Z,2.72
2023-04-11T13:53:09.246Z,2.13
2023-04-11T13:55:49.201Z,5.25
2023-04-11T13:58:24.538Z,1.75
2023-04-11T14:01:01.628Z,1.77
2023-04-11T14:03:36.232Z,2.78
2023-04-11T14:06:04.813Z,1.05
2023-04-11T14:08:41.229Z,1.30
2023-04-11T14:11:09.622Z,1.17
2023-04-11T14:13:45.985Z,3.20
2023-04-11T14:16:16.055Z,2.13
2023-04-11T14:18:54.365Z,2.22
2023-04-11T14:21:22.913Z,1.45
2023-04-11T14:23:52.026Z,1.73
2023-04-11T14:26:34.285Z,1.75
2023-04-11T14:29:05.800Z,2.92
2023-04-11T14:31:34.389Z,4.82
2023-04-11T14:34:06.671Z,1.13
2023-04-11T14:36:38.690Z,3.05
2023-04-11T14:39:10.939Z,2.53
2023-04-11T14:41:54.894Z,1.50
2023-04-11T14:44:26.677Z,1.25
2023-04-11T14:47:11.844Z,3.00
2023-04-11T14:49:52.092Z,1.20
2023-04-11T14:52:22.494Z,2.65
2023-04-11T14:54:54.244Z,2.10
2023-04-11T14:57:42.218Z,0.93
2023-04-11T15:00:35.054Z,1.42
2023-04-11T15:03:04.757Z,3.28
2023-04-11T15:05:32.799Z,1.25
2023-04-11T15:08:05.473Z,2.45
2023-04-11T15:10:36.892Z,2.67
2023-04-11T15:15:41.978Z,3.53
2023-04-11T15:18:36.046Z,1.25
2023-04-11T15:21:20.257Z,4.10
2023-04-11T15:23:48.781Z,1.50
2023-04-11T15:26:24.068Z,2.10
2023-04-11T15:29:03.294Z,2.30
2023-04-11T15:31:39.366Z,1.70
2023-04-11T15:34:10.456Z,3.92
2023-04-11T15:37:01.270Z,1.30
2023-04-11T15:39:43.330Z,3.07
2023-04-11T15:42:22.757Z,4.82
2023-04-11T15:45:12.921Z,3.00
2023-04-11T15:47:57.909Z,2.63
2023-04-11T15:50:29.034Z,2.30
2023-04-11T15:53:00.452Z,3.25
2023-04-11T15:58:01.246Z,1.95
2023-04-11T16:00:32.508Z,3.08
2023-04-11T16:03:06.270Z,2.83
2023-04-11T16:05:34.702Z,3.05
2023-04-11T16:08:03.103Z,3.00
2023-04-11T16:10:35.228Z,2.65
2023-04-11T16:13:05.177Z,4.07
2023-04-11T16:15:33.648Z,4.82
2023-04-11T16:18:17.309Z,1.50
2023-04-11T16:20:57.714Z,2.38
2023-04-11T16:23:27.756Z,2.50
2023-04-11T16:25:57.285Z,2.65
2023-04-11T16:28:30.787Z,2.15
2023-04-11T16:31:05.974Z,2.28
2023-04-11T16:33:45.048Z,2.08
2023-04-11T16:36:15.541Z,3.35
2023-04-11T16:38:54.155Z,3.03
2023-04-11T16:41:22.650Z,4.20
2023-04-11T16:43:50.625Z,1.90
2023-04-11T16:46:25.303Z,2.00
2023-04-11T16:48:54.726Z,3.30
2023-04-11T16:51:23.085Z,1.90
2023-04-11T16:53:55.019Z,3.50
2023-04-11T16:56:40.681Z,3.13
2023-04-11T16:59:13.813Z,2.60
2023-04-11T17:01:43.533Z,4.20
2023-04-11T17:04:22.977Z,3.83
2023-04-11T17:07:15.287Z,3.33
2023-04-11T17:09:51.384Z,3.88
2023-04-11T17:12:24.596Z,4.05
2023-04-11T17:14:56.596Z,2.67
2023-04-11T17:17:37.439Z,2.80
2023-04-11T17:20:17.824Z,1.70
2023-04-11T17:22:48.405Z,2.88
2023-04-11T17:25:24.813Z,2.77
2023-04-11T17:28:30.022Z,2.42
2023-04-11T17:31:12.144Z,2.80
2023-04-11T17:33:51.757Z,3.30
2023-04-11T17:36:33.362Z,5.03
2023-04-11T17:41:50.294Z,2.53
2023-04-11T17:44:19.707Z,4.68
2023-04-11T17:46:50.013Z,1.30
2023-04-11T17:49:20.997Z,2.08
2023-04-11T17:52:00.321Z,2.65
2023-04-11T17:54:29.658Z,3.08
2023-04-11T17:57:20.980Z,3.38
2023-04-11T18:00:21.213Z,2.15
2023-04-11T18:02:54.335Z,4.50
2023-04-11T18:05:25.430Z,4.75
2023-04-11T18:07:55.919Z,1.55
2023-04-11T18:10:25.659Z,2.53
2023-04-11T18:13:05.925Z,5.47
2023-04-11T18:15:36.356Z,3.17
2023-04-11T18:18:09.334Z,2.42
2023-04-11T18:20:38.488Z,2.65
2023-04-11T18:23:30.288Z,6.65
2023-04-11T18:25:59.433Z,4.95
2023-04-11T18:28:27.635Z,2.25
2023-04-11T18:30:58.135Z,2.30
2023-04-11T18:33:28.324Z,3.83
2023-04-11T18:36:00.527Z,3.33
2023-04-11T18:38:44.400Z,6.35
2023-04-11T18:41:31.998Z,1.50
2023-04-11T18:44:02.484Z,5.85
2023-04-11T18:46:33.060Z,4.15
2023-04-11T18:49:07.491Z,2.53
2023-04-11T18:51:48.464Z,3.15
2023-04-11T18:54:31.047Z,3.80
2023-04-11T18:57:09.925Z,4.30
2023-04-11T18:59:47.973Z,2.45
2023-04-11T19:02:18.818Z,4.13
2023-04-11T19:04:55.715Z,2.60
2023-04-11T19:07:27.271Z,9.40
2023-04-11T19:12:34.825Z,3.00
2023-04-11T19:15:14.468Z,2.20
2023-04-11T19:20:39.133Z,1.83
2023-04-11T19:23:08.927Z,3.22
2023-04-11T19:25:40.629Z,2.17
2023-04-11T19:28:11.037Z,1.83
2023-04-11T19:30:39.202Z,1.67
2023-04-11T19:33:16.657Z,1.95
2023-04-11T19:35:47.237Z,1.48
2023-04-11T19:38:26.928Z,2.80
2023-04-11T19:41:11.758Z,3.25
2023-04-11T19:43:40.552Z,6.88
2023-04-11T19:46:18.303Z,1.85
2023-04-11T19:48:53.843Z,2.78
2023-04-11T19:51:42.213Z,2.92
2023-04-11T19:54:12.427Z,1.90
2023-04-11T19:56:50.807Z,4.40
2023-04-11T19:59:22.096Z,3.45
2023-04-11T20:01:53.046Z,5.93
2023-04-11T20:04:25.731Z,3.58
2023-04-11T20:06:54.403Z,2.75
2023-04-11T20:09:31.440Z,4.35
2023-04-11T20:12:04.709Z,3.65
2023-04-11T20:14:33.429Z,3.17
2023-04-11T20:17:03.029Z,4.95
2023-04-11T20:19:39.261Z,3.00
2023-04-11T20:22:12.164Z,3.22
2023-04-11T20:24:48.795Z,5.57
2023-04-11T20:27:19.296Z,5.15
2023-04-11T20:29:59.185Z,3.13
2023-04-11T20:32:33.517Z,3.97
2023-04-11T20:35:06.472Z,2.58
2023-04-11T20:37:38.799Z,2.08
2023-04-11T20:40:22.970Z,2.17
2023-04-11T20:42:53.519Z,5.82
2023-04-11T20:45:27.035Z,2.72
2023-04-11T20:53:50.039Z,8.85
2023-04-11T20:59:40.576Z,4.68
2023-04-11T21:02:12.336Z,8.70
2023-04-11T21:07:15.151Z,5.50
2023-04-11T21:09:52.648Z,3.58
2023-04-11T21:12:23.130Z,3.17
2023-04-11T21:14:51.965Z,2.45
2023-04-11T21:17:22.152Z,3.28
2023-04-11T21:19:50.416Z,3.55
2023-04-11T21:22:19.820Z,4.72
2023-04-11T21:24:49.176Z,2.58
2023-04-11T21:27:25.487Z,4.38
2023-04-11T21:29:53.626Z,5.85
2023-04-11T21:32:26.854Z,4.45
2023-04-11T21:35:16.000Z,2.30
2023-04-11T21:38:14.171Z,3.58
2023-04-11T21:40:43.293Z,3.90
2023-04-11T21:43:17.691Z,5.20
2023-04-11T21:46:18.187Z,5.40
2023-04-11T21:55:30.553Z,3.00
2023-04-11T21:58:25.919Z,3.97
2023-04-11T22:04:14.447Z,6.80
2023-04-11T22:06:48.528Z,3.60
2023-04-11T22:09:37.589Z,1.90
2023-04-11T22:12:13.350Z,3.45
2023-04-11T22:14:41.926Z,3.05
2023-04-11T22:17:10.570Z,3.58
2023-04-11T22:20:01.589Z,6.03
2023-04-11T22:25:45.176Z,2.60
2023-04-11T22:35:38.749Z,2.45
2023-04-11T22:41:53.075Z,1.77
2023-04-11T22:48:34.724Z,6.32
2023-04-11T23:04:15.063Z,1.88
2023-04-11T23:06:59.852Z,2.95
2023-04-11T23:09:49.613Z,2.92
2023-04-11T23:15:26.204Z,3.75
2023-04-11T23:17:57.245Z,2.47
2023-04-11T23:20:36.777Z,2.80
2023-04-11T23:36:35.270Z,2.30
2023-04-11T23:39:26.757Z,2.50
2023-04-11T23:45:08.073Z,2.22
2023-04-11T23:50:49.670Z,7.95
2023-04-11T23:53:42.134Z,3.95
2023-04-11T23:56:10.634Z,4.45
2023-04-11T23:58:40.016Z,1.88
